Date,TemperatureHighF,TemperatureAvgF,TemperatureLowF,DewpointHighF,DewpointAvgF,DewpointLowF,HumidityHigh,HumidityAvg,HumidityLow,PressureMaxIn,PressureMinIn,WindSpeedMaxMPH,WindSpeedAvgMPH,GustSpeedMaxMPH,PrecipitationSumIn
2013-2-1,32,28,23,-100,-100,-100,0,0,100,30.33,29.87,0,-999,27,0.00
2013-2-2,30,24,18,-100,-100,-100,0,0,100,30.39,30.09,0,-999,0,0.00
2013-2-3,34,30,26,-100,-100,-100,0,0,100,30.09,29.81,0,-999,0,0.00
2013-2-4,33,28,24,-100,-100,-100,0,0,100,30.09,29.88,0,-999,11,0.00
2013-2-5,38,35,32,-100,-100,-100,0,0,100,30.00,29.90,0,-999,0,0.00
2013-2-6,41,35,29,-100,-100,-100,0,0,100,30.37,29.93,0,-999,16,0.00
2013-2-7,40,34,28,-100,-100,-100,0,0,100,30.50,30.26,0,-999,0,0.00
2013-2-8,43,40,33,-100,-100,-100,0,0,100,30.26,29.57,30,-718,37,0.00
2013-2-9,35,30,26,-100,-100,-100,0,0,100,30.34,29.75,18,-922,29,0.00
2013-2-10,38,28,21,-100,-100,-100,0,0,100,30.52,30.35,0,-999,0,0.00
2013-2-11,51,44,38,-100,-100,-100,0,0,100,30.36,29.70,0,-999,0,0.00
2013-2-12,51,44,38,-100,-100,-100,0,0,100,29.99,29.75,0,-999,9,0.00
2013-2-13,41,37,33,-100,-100,-100,0,0,100,29.99,29.65,0,-999,16,0.00
2013-2-14,43,37,33,-100,-100,-100,0,0,100,30.05,29.71,0,-999,0,0.00
2013-2-15,46,42,37,-100,-100,-100,0,0,100,30.07,29.95,0,-999,0,0.00
2013-2-16,43,36,30,-100,-100,-100,0,0,100,29.97,29.74,0,-999,23,0.00
2013-2-17,32,29,24,-100,-100,-100,0,0,100,30.09,29.70,20,-907,27,0.00
2013-2-18,37,29,21,-100,-100,-100,0,0,100,30.32,30.09,0,-999,27,0.00
2013-2-19,46,42,36,-100,-100,-100,0,0,100,30.25,29.74,0,-999,21,0.00
2013-2-20,40,32,26,-100,-100,-100,0,0,100,30.09,29.80,0,-999,18,0.00
2013-2-21,36,30,23,-100,-100,-100,0,0,100,30.30,30.06,8,-954,16,0.00
2013-2-22,36,32,26,-100,-100,-100,0,0,100,30.42,30.26,0,-999,3,0.00
2013-2-23,45,41,35,-100,-100,-100,0,0,100,30.26,29.77,0,-999,9,0.00
2013-2-24,48,40,33,-100,-100,-100,0,0,100,30.03,29.76,0,-999,16,0.00
2013-2-25,42,36,30,-100,-100,-100,0,0,100,30.26,30.03,0,-999,0,0.00
2013-2-26,46,39,33,-100,-100,-100,0,0,100,30.27,29.74,0,-999,0,0.00
2013-2-27,55,48,43,-100,-100,-100,0,0,100,29.74,29.51,0,-999,0,0.00
2013-2-28,46,43,38,-100,-100,-100,0,0,100,29.67,29.59,0,-999,0,0.00